createdAt,value
2022-11-08T00:00:21.816Z,8.30
2022-11-08T00:03:00.461Z,7.70
2022-11-08T00:05:46.925Z,8.80
2022-11-08T00:08:33.584Z,7.90
2022-11-08T00:11:23.381Z,8.60
2022-11-08T00:14:00.482Z,9.80
2022-11-08T00:16:29.508Z,8.10
2022-11-08T00:18:57.368Z,7.70
2022-11-08T00:21:25.131Z,7.20
2022-11-08T00:23:53.068Z,7.40
2022-11-08T00:26:20.828Z,7.30
2022-11-08T00:28:48.508Z,7.30
2022-11-08T00:31:16.270Z,5.80
2022-11-08T00:33:43.971Z,7.00
2022-11-08T00:36:11.713Z,7.90
2022-11-08T00:38:43.879Z,8.00
2022-11-08T00:41:12.717Z,7.60
2022-11-08T00:43:40.606Z,6.80
2022-11-08T00:46:08.334Z,8.40
2022-11-08T00:48:36.330Z,8.70
2022-11-08T00:51:06.022Z,8.00
2022-11-08T00:53:33.836Z,8.00
2022-11-08T00:56:07.588Z,9.30
2022-11-08T00:58:35.367Z,7.50
2022-11-08T01:01:11.507Z,7.50
2022-11-08T01:03:39.728Z,8.50
2022-11-08T01:06:09.218Z,8.00
2022-11-08T01:08:37.222Z,8.10
2022-11-08T01:11:08.319Z,6.50
2022-11-08T01:13:36.815Z,7.70
2022-11-08T01:16:09.913Z,8.00
2022-11-08T01:18:38.467Z,7.90
2022-11-08T01:21:06.942Z,7.40
2022-11-08T01:23:34.858Z,7.50
2022-11-08T01:26:09.482Z,7.50
2022-11-08T01:28:37.412Z,6.40
2022-11-08T01:31:07.738Z,7.10
2022-11-08T01:33:35.354Z,7.60
2022-11-08T01:36:05.894Z,7.40
2022-11-08T01:38:34.394Z,7.90
2022-11-08T01:41:02.470Z,7.30
2022-11-08T01:43:30.255Z,7.80
2022-11-08T01:46:13.246Z,7.30
2022-11-08T01:49:25.535Z,6.90
2022-11-08T01:52:18.544Z,8.30
2022-11-08T01:55:09.146Z,7.20
2022-11-08T01:57:53.270Z,7.50
2022-11-08T02:00:21.123Z,7.70
2022-11-08T02:02:59.447Z,7.00
2022-11-08T02:05:29.959Z,7.10
2022-11-08T02:08:10.314Z,6.50
2022-11-08T02:10:44.939Z,7.40
2022-11-08T02:13:17.006Z,6.90
2022-11-08T02:15:45.676Z,6.90
2022-11-08T02:18:15.398Z,8.70
2022-11-08T02:21:08.167Z,7.60
2022-11-08T02:23:47.791Z,7.90
2022-11-08T02:26:17.497Z,6.40
2022-11-08T02:28:49.271Z,7.60
2022-11-08T02:31:19.166Z,7.40
2022-11-08T02:33:48.395Z,7.60
2022-11-08T02:36:20.268Z,8.20
2022-11-08T02:38:54.815Z,6.90
2022-11-08T02:41:24.045Z,8.20
2022-11-08T02:43:51.802Z,7.90
2022-11-08T02:46:19.551Z,7.20
2022-11-08T02:48:47.210Z,7.50
2022-11-08T02:51:14.929Z,7.70
2022-11-08T02:53:42.637Z,6.90
2022-11-08T02:56:11.395Z,7.20
2022-11-08T02:58:39.079Z,7.40
2022-11-08T03:01:06.817Z,7.70
2022-11-08T03:03:34.518Z,7.50
2022-11-08T03:06:02.499Z,6.90
2022-11-08T03:08:30.238Z,7.70
2022-11-08T03:11:00.168Z,7.20
2022-11-08T03:13:27.934Z,7.50
2022-11-08T03:15:55.614Z,6.50
2022-11-08T03:18:23.357Z,6.80
2022-11-08T03:20:51.118Z,8.60
2022-11-08T03:23:18.919Z,8.70
2022-11-08T03:25:46.642Z,7.00
2022-11-08T03:28:16.386Z,7.30
2022-11-08T03:30:50.391Z,5.90
2022-11-08T03:33:18.184Z,5.50
2022-11-08T03:35:45.994Z,7.20
2022-11-08T03:38:13.687Z,7.60
2022-11-08T03:40:42.421Z,5.90
2022-11-08T03:43:10.411Z,8.50
2022-11-08T03:45:38.172Z,7.80
2022-11-08T03:48:06.425Z,7.60
2022-11-08T03:50:34.436Z,7.70
2022-11-08T03:53:02.301Z,7.70
2022-11-08T03:55:30.085Z,7.90
2022-11-08T03:57:58.320Z,7.30
2022-11-08T04:00:28.847Z,8.90
2022-11-08T04:03:02.166Z,6.80
2022-11-08T04:05:32.257Z,8.10
2022-11-08T04:08:01.311Z,6.60
2022-11-08T04:10:29.326Z,7.10
2022-11-08T04:13:19.490Z,7.80
2022-11-08T04:15:54.012Z,7.70
2022-11-08T04:18:41.146Z,7.40
2022-11-08T04:21:19.454Z,8.10
2022-11-08T04:23:52.553Z,7.40
2022-11-08T04:26:22.411Z,7.60
2022-11-08T04:28:50.223Z,7.40
2022-11-08T04:31:20.075Z,9.30
2022-11-08T04:33:47.897Z,7.60
2022-11-08T04:36:17.328Z,7.40
2022-11-08T04:38:51.791Z,8.20
2022-11-08T04:41:22.067Z,8.70
2022-11-08T04:43:51.372Z,7.10
2022-11-08T04:46:21.298Z,8.00
2022-11-08T04:48:52.215Z,7.00
2022-11-08T04:51:23.157Z,7.70
2022-11-08T04:53:50.843Z,7.80
2022-11-08T04:56:21.117Z,7.30
2022-11-08T04:58:51.176Z,7.50
2022-11-08T05:01:25.464Z,7.30
2022-11-08T05:03:54.981Z,7.80
2022-11-08T05:06:28.245Z,9.10
2022-11-08T05:08:57.952Z,8.30
2022-11-08T05:11:28.675Z,8.20
2022-11-08T05:13:57.170Z,7.90
2022-11-08T05:16:30.721Z,7.30
2022-11-08T05:18:59.227Z,7.60
2022-11-08T05:21:46.894Z,8.40
2022-11-08T05:24:17.305Z,7.80
2022-11-08T05:26:48.129Z,7.90
2022-11-08T05:29:17.107Z,8.50
2022-11-08T05:31:45.013Z,8.70
2022-11-08T05:34:12.996Z,8.80
2022-11-08T05:36:40.755Z,7.50
2022-11-08T05:39:08.488Z,9.00
2022-11-08T05:41:36.349Z,8.60
2022-11-08T05:44:04.114Z,8.20
2022-11-08T05:46:31.796Z,9.00
2022-11-08T05:48:59.724Z,9.10
2022-11-08T05:51:27.851Z,8.60
2022-11-08T05:53:55.559Z,8.60
2022-11-08T05:56:23.335Z,8.50
2022-11-08T05:58:51.041Z,10.70
2022-11-08T06:01:20.268Z,9.50
2022-11-08T06:03:48.472Z,8.20
2022-11-08T06:06:21.501Z,8.60
2022-11-08T06:08:50.862Z,8.70
2022-11-08T06:11:25.665Z,9.40
2022-11-08T06:13:54.677Z,8.50
2022-11-08T06:16:24.390Z,8.90
2022-11-08T06:18:52.667Z,9.40
2022-11-08T06:21:21.873Z,8.00
2022-11-08T06:23:52.894Z,9.30
2022-11-08T06:26:24.388Z,9.40
2022-11-08T06:28:52.317Z,10.20
2022-11-08T06:31:20.146Z,10.10
2022-11-08T06:33:48.048Z,8.60
2022-11-08T06:36:16.195Z,10.10
2022-11-08T06:38:43.968Z,8.80
2022-11-08T06:41:18.837Z,11.10
2022-11-08T06:43:46.527Z,8.50
2022-11-08T06:46:14.302Z,9.20
2022-11-08T06:48:42.049Z,8.10
2022-11-08T06:51:09.869Z,6.40
2022-11-08T06:53:37.621Z,9.30
2022-11-08T06:56:05.390Z,8.60
2022-11-08T06:58:33.101Z,9.70
2022-11-08T07:01:05.972Z,8.70
2022-11-08T07:03:33.999Z,8.10
2022-11-08T07:06:03.896Z,8.20
2022-11-08T07:08:32.766Z,7.70
2022-11-08T07:11:00.808Z,8.40
2022-11-08T07:13:28.545Z,8.80
2022-11-08T07:16:00.352Z,7.80
2022-11-08T07:18:29.244Z,7.70
2022-11-08T07:21:01.669Z,8.30
2022-11-08T07:23:29.871Z,7.80
2022-11-08T07:26:03.737Z,8.10
2022-11-08T07:28:32.120Z,7.60
2022-11-08T07:31:02.746Z,10.90
2022-11-08T07:33:31.428Z,11.20
2022-11-08T07:35:59.292Z,7.60
2022-11-08T07:38:27.264Z,8.50
2022-11-08T07:40:59.841Z,7.40
2022-11-08T07:43:29.593Z,8.70
2022-11-08T07:46:00.508Z,7.10
2022-11-08T07:48:30.213Z,8.10
2022-11-08T07:50:58.016Z,7.10
2022-11-08T07:53:25.929Z,7.50
2022-11-08T07:55:55.209Z,8.10
2022-11-08T07:58:23.022Z,7.60
2022-11-08T08:00:50.752Z,6.90
2022-11-08T08:03:19.081Z,7.20
2022-11-08T08:05:57.994Z,7.50
2022-11-08T08:08:29.237Z,6.70
2022-11-08T08:10:59.416Z,8.50
2022-11-08T08:13:28.119Z,7.70
2022-11-08T08:16:00.943Z,7.10
2022-11-08T08:18:30.015Z,8.10
2022-11-08T08:20:58.522Z,6.70
2022-11-08T08:23:26.433Z,6.00
2022-11-08T08:25:54.167Z,6.10
2022-11-08T08:28:21.929Z,6.80
2022-11-08T08:30:49.696Z,5.60
2022-11-08T08:33:33.462Z,6.30
2022-11-08T08:38:31.628Z,5.90
2022-11-08T08:41:00.672Z,6.30
2022-11-08T08:43:32.637Z,6.30
2022-11-08T08:46:06.306Z,5.70
2022-11-08T08:48:34.106Z,5.60
2022-11-08T08:51:01.859Z,6.20
2022-11-08T08:53:29.665Z,5.20
2022-11-08T08:55:57.341Z,5.40
2022-11-08T08:58:25.040Z,4.90
2022-11-08T09:03:40.404Z,5.30
2022-11-08T09:06:08.141Z,5.60
2022-11-08T09:08:36.265Z,5.60
2022-11-08T09:11:04.584Z,5.10
2022-11-08T09:13:32.630Z,5.20
2022-11-08T09:16:02.746Z,5.10
2022-11-08T09:18:31.762Z,5.00
2022-11-08T09:20:59.938Z,5.00
2022-11-08T09:23:27.617Z,5.60
2022-11-08T09:26:03.926Z,4.40
2022-11-08T09:28:33.358Z,4.50
2022-11-08T09:31:09.995Z,4.70
2022-11-08T09:33:40.048Z,5.80
2022-11-08T09:36:11.650Z,6.20
2022-11-08T09:38:39.331Z,5.10
2022-11-08T09:41:30.566Z,4.70
2022-11-08T09:44:10.138Z,4.30
2022-11-08T09:47:01.965Z,4.90
2022-11-08T09:49:38.194Z,4.30
2022-11-08T09:52:07.131Z,3.80
2022-11-08T09:54:44.016Z,3.90
2022-11-08T09:57:46.878Z,3.60
2022-11-08T10:00:15.198Z,4.80
2022-11-08T10:02:43.019Z,3.70
2022-11-08T10:05:16.614Z,4.70
2022-11-08T10:07:58.578Z,3.70
2022-11-08T10:11:11.354Z,4.00
2022-11-08T10:13:53.118Z,3.40
2022-11-08T10:16:36.109Z,3.00
2022-11-08T10:19:19.221Z,3.70
2022-11-08T10:22:02.571Z,3.60
2022-11-08T10:25:00.480Z,3.80
2022-11-08T10:27:39.457Z,4.30
2022-11-08T10:30:21.510Z,2.70
2022-11-08T10:32:54.179Z,3.10
2022-11-08T10:35:27.147Z,3.00
2022-11-08T10:37:58.195Z,3.10
2022-11-08T10:40:41.714Z,3.70
2022-11-08T10:43:31.692Z,3.00
2022-11-08T10:45:59.478Z,5.80
2022-11-08T10:48:27.811Z,3.80
2022-11-08T10:50:55.706Z,3.50
2022-11-08T10:53:27.262Z,2.80
2022-11-08T10:56:05.636Z,3.60
2022-11-08T10:58:39.639Z,3.30
2022-11-08T11:01:24.815Z,3.40
2022-11-08T11:03:54.073Z,3.50
2022-11-08T11:06:30.225Z,3.30
2022-11-08T11:09:04.007Z,6.60
2022-11-08T11:11:31.606Z,2.60
2022-11-08T11:14:14.521Z,3.20
2022-11-08T11:16:58.630Z,2.60
2022-11-08T11:19:27.987Z,2.40
2022-11-08T11:22:02.027Z,3.00
2022-11-08T11:24:30.402Z,3.00
2022-11-08T11:26:58.059Z,2.90
2022-11-08T11:29:34.796Z,3.10
2022-11-08T11:32:35.244Z,2.70
2022-11-08T11:35:05.576Z,3.10
2022-11-08T11:37:41.158Z,4.40
2022-11-08T11:40:21.775Z,3.00
2022-11-08T11:43:01.915Z,3.10
2022-11-08T11:45:42.857Z,3.70
2022-11-08T11:48:19.428Z,3.20
2022-11-08T11:50:50.860Z,2.40
2022-11-08T11:56:08.228Z,3.20
2022-11-08T11:59:05.656Z,3.20
2022-11-08T12:01:52.662Z,4.00
2022-11-08T12:04:59.895Z,5.00
2022-11-08T12:07:30.642Z,3.30
2022-11-08T12:10:07.262Z,3.30
2022-11-08T12:12:57.002Z,3.30
2022-11-08T12:15:27.373Z,3.70
2022-11-08T12:18:01.191Z,2.90
2022-11-08T12:20:48.322Z,3.10
2022-11-08T12:23:48.116Z,2.90
2022-11-08T12:26:20.819Z,2.90
2022-11-08T12:28:59.164Z,3.00
2022-11-08T12:31:35.139Z,3.40
2022-11-08T12:34:28.907Z,3.20
2022-11-08T12:37:30.218Z,3.80
2022-11-08T12:40:02.710Z,5.00
2022-11-08T12:42:35.158Z,3.70
2022-11-08T12:45:14.854Z,3.30
2022-11-08T12:47:54.723Z,3.60
2022-11-08T12:50:57.591Z,3.40
2022-11-08T12:53:51.065Z,3.20
2022-11-08T12:56:27.538Z,3.20
2022-11-08T12:58:56.546Z,3.20
2022-11-08T13:01:24.627Z,3.60
2022-11-08T13:04:06.279Z,3.50
2022-11-08T13:06:43.453Z,3.70
2022-11-08T13:09:32.585Z,3.50
2022-11-08T13:12:25.050Z,3.00
2022-11-08T13:14:52.923Z,3.20
2022-11-08T13:17:20.694Z,2.60
2022-11-08T13:19:48.797Z,2.70
2022-11-08T13:22:29.050Z,3.10
2022-11-08T13:25:01.989Z,2.80
2022-11-08T13:27:36.946Z,3.30
2022-11-08T13:30:17.465Z,3.10
2022-11-08T13:33:29.245Z,3.00
2022-11-08T13:36:18.847Z,3.10
2022-11-08T13:39:00.656Z,2.90
2022-11-08T13:41:28.528Z,3.00
2022-11-08T13:43:58.515Z,2.70
2022-11-08T13:46:26.178Z,3.60
2022-11-08T13:49:06.443Z,4.10
2022-11-08T13:51:36.458Z,5.80
2022-11-08T13:54:23.672Z,7.40
2022-11-08T13:56:56.166Z,6.10
2022-11-08T13:59:33.144Z,5.30
2022-11-08T14:02:25.820Z,5.60
2022-11-08T14:04:54.017Z,4.70
2022-11-08T14:07:38.303Z,3.70
2022-11-08T14:10:23.052Z,4.00
2022-11-08T14:13:01.313Z,4.20
2022-11-08T14:15:44.617Z,4.50
2022-11-08T14:18:24.374Z,3.70
2022-11-08T14:20:54.868Z,3.50
2022-11-08T14:23:32.078Z,4.20
2022-11-08T14:26:07.199Z,5.10
2022-11-08T14:28:38.604Z,4.70
2022-11-08T14:31:26.779Z,4.40
2022-11-08T14:33:55.801Z,4.30
2022-11-08T14:36:25.242Z,5.00
2022-11-08T14:39:05.751Z,8.40
2022-11-08T14:41:34.575Z,9.00
2022-11-08T14:44:04.081Z,9.20
2022-11-08T14:46:35.119Z,7.20
2022-11-08T14:49:13.129Z,7.80
2022-11-08T14:51:44.079Z,6.20
2022-11-08T14:54:20.619Z,6.70
2022-11-08T14:56:50.396Z,5.30
2022-11-08T14:59:18.454Z,5.40
2022-11-08T15:01:48.706Z,5.90
2022-11-08T15:04:20.790Z,5.20
2022-11-08T15:06:59.438Z,5.70
2022-11-08T15:09:31.051Z,4.10
2022-11-08T15:12:03.141Z,4.90
2022-11-08T15:14:35.979Z,5.30
2022-11-08T15:17:04.000Z,4.40
2022-11-08T15:19:31.821Z,4.80
2022-11-08T15:22:02.533Z,4.90
2022-11-08T15:24:37.787Z,4.50
2022-11-08T15:27:15.908Z,5.30
2022-11-08T15:30:17.791Z,4.50
2022-11-08T15:32:45.737Z,4.00
2022-11-08T15:35:28.510Z,5.70
2022-11-08T15:38:02.121Z,4.40
2022-11-08T15:40:32.578Z,5.70
2022-11-08T15:43:00.890Z,6.30
2022-11-08T15:45:35.259Z,5.20
2022-11-08T15:48:08.788Z,13.30
2022-11-08T15:50:36.573Z,11.60
2022-11-08T15:53:05.093Z,9.70
2022-11-08T15:55:38.589Z,7.50
2022-11-08T15:58:16.128Z,5.30
2022-11-08T16:00:47.408Z,5.30
2022-11-08T16:03:15.621Z,6.10
2022-11-08T16:05:43.439Z,6.50
2022-11-08T16:08:13.333Z,5.70
2022-11-08T16:10:47.548Z,8.20
2022-11-08T16:13:24.130Z,5.80
2022-11-08T16:15:51.894Z,6.40
2022-11-08T16:18:20.612Z,6.30
2022-11-08T16:20:48.628Z,8.00
2022-11-08T16:26:00.969Z,11.80
2022-11-08T16:28:38.152Z,12.20
2022-11-08T16:31:08.753Z,10.50
2022-11-08T16:33:36.886Z,10.10
2022-11-08T16:36:21.414Z,9.60
2022-11-08T16:38:54.512Z,9.50
2022-11-08T16:41:24.010Z,8.70
2022-11-08T16:43:51.884Z,7.50
2022-11-08T16:46:21.429Z,8.00
2022-11-08T16:48:58.324Z,6.70
2022-11-08T16:51:26.624Z,7.70
2022-11-08T16:53:54.643Z,7.70
2022-11-08T16:56:22.471Z,7.60
2022-11-08T16:58:50.548Z,7.30
2022-11-08T17:01:23.328Z,8.80
2022-11-08T17:03:51.244Z,7.70
2022-11-08T17:06:19.285Z,8.90
2022-11-08T17:08:47.430Z,8.00
2022-11-08T17:11:21.427Z,7.80
2022-11-08T17:13:50.212Z,9.30
2022-11-08T17:16:18.863Z,8.70
2022-11-08T17:18:51.468Z,9.50
2022-11-08T17:24:09.141Z,10.00
2022-11-08T17:26:36.900Z,11.20
2022-11-08T17:29:06.677Z,11.20
2022-11-08T17:31:34.399Z,10.60
2022-11-08T17:34:02.175Z,10.70
2022-11-08T17:36:29.947Z,10.50
2022-11-08T17:38:57.676Z,10.50
2022-11-08T17:41:25.399Z,11.00
2022-11-08T17:43:53.176Z,14.50
2022-11-08T17:46:21.055Z,14.40
2022-11-08T17:48:48.821Z,14.20
2022-11-08T17:51:16.849Z,15.70
2022-11-08T17:53:44.658Z,16.00
2022-11-08T17:56:13.088Z,18.60
2022-11-08T17:58:41.309Z,18.50
2022-11-08T18:01:09.527Z,23.90
2022-11-08T18:03:37.409Z,27.10
2022-11-08T18:06:11.414Z,20.60
2022-11-08T18:08:40.318Z,18.70
2022-11-08T18:11:08.519Z,17.60
2022-11-08T18:13:36.476Z,17.20
2022-11-08T18:16:13.323Z,15.90
2022-11-08T18:18:41.716Z,17.70
2022-11-08T18:21:10.210Z,19.60
2022-11-08T18:23:42.756Z,18.00
2022-11-08T18:26:11.922Z,18.90
2022-11-08T18:28:40.824Z,17.00
2022-11-08T18:31:11.242Z,20.00
2022-11-08T18:33:39.970Z,17.90
2022-11-08T18:36:18.341Z,17.60
2022-11-08T18:38:46.737Z,17.90
2022-11-08T18:41:18.984Z,18.10
2022-11-08T18:43:46.978Z,18.10
2022-11-08T18:46:16.856Z,16.20
2022-11-08T18:48:44.801Z,16.40
2022-11-08T18:51:14.636Z,16.70
2022-11-08T18:53:43.166Z,16.90
2022-11-08T18:56:12.085Z,16.90
2022-11-08T18:58:40.291Z,17.10
2022-11-08T19:01:08.085Z,15.10
2022-11-08T19:03:35.887Z,14.70
2022-11-08T19:06:04.120Z,16.00
2022-11-08T19:08:32.721Z,15.80
2022-11-08T19:11:03.794Z,17.50
2022-11-08T19:13:33.343Z,17.10
2022-11-08T19:16:07.203Z,14.10
2022-11-08T19:18:35.918Z,14.10
2022-11-08T19:21:15.682Z,16.10
2022-11-08T19:23:44.169Z,13.00
2022-11-08T19:26:15.735Z,14.30
2022-11-08T19:28:45.721Z,15.40
2022-11-08T19:31:22.995Z,14.80
2022-11-08T19:33:55.377Z,13.90
2022-11-08T19:36:28.368Z,12.60
2022-11-08T19:38:57.844Z,13.00
2022-11-08T19:41:27.802Z,13.30
2022-11-08T19:43:55.526Z,12.10
2022-11-08T19:46:29.040Z,12.80
2022-11-08T19:48:58.735Z,12.40
2022-11-08T19:51:28.971Z,12.10
2022-11-08T19:53:59.578Z,12.50
2022-11-08T19:56:50.100Z,11.00
2022-11-08T19:59:16.788Z,10.80
2022-11-08T20:01:46.061Z,11.20
2022-11-08T20:04:14.807Z,12.40
2022-11-08T20:06:42.618Z,12.60
2022-11-08T20:09:11.335Z,12.30
2022-11-08T20:11:41.080Z,11.50
2022-11-08T20:14:11.571Z,11.50
2022-11-08T20:16:42.093Z,10.70
2022-11-08T20:19:13.808Z,10.40
2022-11-08T20:21:45.838Z,11.50
2022-11-08T20:24:14.640Z,10.30
2022-11-08T20:26:42.872Z,10.10
2022-11-08T20:29:11.334Z,10.30
2022-11-08T20:31:39.477Z,9.10
2022-11-08T20:34:12.894Z,10.00
2022-11-08T20:36:43.951Z,10.50
2022-11-08T20:39:13.923Z,13.30
2022-11-08T20:41:41.978Z,21.10
2022-11-08T20:44:10.544Z,19.00
2022-11-08T20:46:38.857Z,14.80
2022-11-08T20:49:07.269Z,12.80
2022-11-08T20:51:35.269Z,12.50
2022-11-08T20:54:03.649Z,11.40
2022-11-08T20:56:31.531Z,10.10
2022-11-08T20:58:59.302Z,9.70
2022-11-08T21:01:29.711Z,11.20
2022-11-08T21:03:57.738Z,11.30
2022-11-08T21:06:27.379Z,12.00
2022-11-08T21:09:01.985Z,9.90
2022-11-08T21:11:37.299Z,11.10
2022-11-08T21:14:05.773Z,15.70
2022-11-08T21:16:47.414Z,12.90
2022-11-08T21:19:21.662Z,10.70
2022-11-08T21:21:49.471Z,10.20
2022-11-08T21:24:17.373Z,10.50
2022-11-08T21:26:45.316Z,10.10
2022-11-08T21:29:13.023Z,10.00
2022-11-08T21:31:40.697Z,9.10
2022-11-08T21:34:09.057Z,9.40
2022-11-08T21:36:36.762Z,10.00
2022-11-08T21:39:04.494Z,8.90
2022-11-08T21:41:32.171Z,7.70
2022-11-08T21:43:59.973Z,8.50
2022-11-08T21:46:27.989Z,9.20
2022-11-08T21:48:57.939Z,8.70
2022-11-08T21:51:26.457Z,7.80
2022-11-08T21:53:56.084Z,8.10
2022-11-08T21:56:25.870Z,8.60
2022-11-08T21:58:53.863Z,7.20
2022-11-08T22:01:25.600Z,8.50
2022-11-08T22:03:56.673Z,12.40
2022-11-08T22:06:24.384Z,10.20
2022-11-08T22:08:52.179Z,12.50
2022-11-08T22:11:19.921Z,11.90
2022-11-08T22:13:47.581Z,9.90
2022-11-08T22:16:15.639Z,11.00
2022-11-08T22:19:03.537Z,10.00
2022-11-08T22:21:41.317Z,10.00
2022-11-08T22:24:14.870Z,10.20
2022-11-08T22:26:42.636Z,9.50
2022-11-08T22:29:10.555Z,8.60
2022-11-08T22:31:38.764Z,9.00
2022-11-08T22:34:08.571Z,8.30
2022-11-08T22:36:44.089Z,9.50
2022-11-08T22:39:14.479Z,11.60
2022-11-08T22:41:43.415Z,11.40
2022-11-08T22:44:12.615Z,10.10
2022-11-08T22:46:42.232Z,9.70
2022-11-08T22:49:11.048Z,11.80
2022-11-08T22:51:39.918Z,12.10
2022-11-08T22:54:08.394Z,14.90
2022-11-08T22:56:37.016Z,17.30
2022-11-08T22:59:05.108Z,16.10
2022-11-08T23:01:33.364Z,14.10
2022-11-08T23:04:01.296Z,12.40
2022-11-08T23:06:29.171Z,10.90
2022-11-08T23:08:57.617Z,9.40
2022-11-08T23:11:44.242Z,9.60
2022-11-08T23:14:36.525Z,9.10
2022-11-08T23:17:07.728Z,10.40
2022-11-08T23:20:07.813Z,9.70
2022-11-08T23:22:54.149Z,9.50
2022-11-08T23:25:21.815Z,9.60
2022-11-08T23:28:25.113Z,9.40
2022-11-08T23:31:12.225Z,8.80
2022-11-08T23:33:44.086Z,10.30
2022-11-08T23:36:11.751Z,9.50
2022-11-08T23:38:39.726Z,11.30
2022-11-08T23:41:26.474Z,9.10
2022-11-08T23:44:13.838Z,10.50
2022-11-08T23:46:41.724Z,10.20
2022-11-08T23:49:09.449Z,10.00
2022-11-08T23:51:37.320Z,10.20
2022-11-08T23:54:05.113Z,9.90
2022-11-08T23:56:32.900Z,9.20
2022-11-08T23:59:01.441Z,11.10
